Wetterdaten: Woche 20.02.17 - 26.02.17 (KW8)
Datum Zeit Temp. Aussen Temp. o. S. +5cm Feuchte Auss BlattFeu 1 Luftdruck Regen Sonnenschein Regendauer Solar Windben Empfang
20.02.2017 00:00 6,7 C 6,8 C 5,0 C 96 % 1 lf 1020,5 hPa 0,0 l/m 0,00 h 0,00 h 0 W/m 7,1 km/h (2 Bft) 97,77 %
20.02.2017 01:00 7,0 C 7,2 C 5,5 C 96 % 1 lf 1020,4 hPa 0,0 l/m 0,00 h 0,00 h 0 W/m 11,8 km/h (2 Bft) 95,52 %
20.02.2017 02:00 7,2 C 7,2 C 5,6 C 96 % 2 lf 1019,7 hPa 0,0 l/m 0,00 h 0,03 h 0 W/m 13,6 km/h (3 Bft) 94,31 %
20.02.2017 03:00 7,3 C 7,7 C 5,6 C 96 % 1 lf 1019,2 hPa 0,0 l/m 0,00 h 0,00 h 0 W/m 15,4 km/h (3 Bft) 96,02 %
20.02.2017 04:00 7,3 C 7,7 C 5,6 C 95 % 1 lf 1018,7 hPa 0,0 l/m 0,00 h 0,00 h 0 W/m 14,9 km/h (3 Bft) 97,68 %
20.02.2017 05:00 7,2 C 7,2 C 5,6 C 94 % 1 lf 1018,8 hPa 0,0 l/m 0,00 h 0,00 h 0 W/m 12,2 km/h (2 Bft) 95,58 %
20.02.2017 06:00 7,3 C 7,2 C 5,7 C 95 % 1 lf 1017,9 hPa 0,0 l/m 0,00 h 0,00 h 0 W/m 15,9 km/h (3 Bft) 94,16 %
20.02.2017 07:00 7,4 C 7,5 C 6,1 C 96 % 5 lf 1017,9 hPa 0,0 l/m 0,00 h 0,00 h 3 W/m 17,0 km/h (3 Bft) 97,30 %
20.02.2017 08:00 7,6 C 7,5 C 6,3 C 97 % 15 lf 1017,9 hPa 0,2 l/m 0,00 h 0,00 h 21 W/m 16,7 km/h (3 Bft) 95,36 %
20.02.2017 09:00 7,8 C 7,9 C 6,8 C 97 % 15 lf 1017,5 hPa 0,0 l/m 0,00 h 0,00 h 37 W/m 20,4 km/h (4 Bft) 96,82 %
20.02.2017 10:00 8,1 C 8,3 C 7,1 C 98 % 14 lf 1016,8 hPa 0,0 l/m 0,00 h 0,40 h 46 W/m 25,1 km/h (4 Bft) 95,25 %
20.02.2017 11:00 8,4 C 8,4 C 7,2 C 98 % 15 lf 1016,7 hPa 0,0 l/m 0,00 h 0,90 h 36 W/m 27,3 km/h (4 Bft) 94,87 %
20.02.2017 12:00 8,9 C 9,6 C 7,8 C 97 % 4 lf 1016,2 hPa 0,0 l/m 0,00 h 0,43 h 71 W/m 29,6 km/h (5 Bft) 96,38 %
20.02.2017 13:00 9,2 C 9,2 C 7,8 C 96 % 15 lf 1015,6 hPa 0,2 l/m 0,00 h 0,90 h 53 W/m 31,8 km/h (5 Bft) 97,78 %
20.02.2017 14:00 9,3 C 9,4 C 7,8 C 97 % 14 lf 1015,0 hPa 0,0 l/m 0,00 h 0,93 h 62 W/m 30,9 km/h (5 Bft) 92,10 %
20.02.2017 15:00 9,4 C 10,0 C 8,3 C 97 % 4 lf 1014,5 hPa 0,0 l/m 0,00 h 0,73 h 54 W/m 30,3 km/h (5 Bft) 98,01 %
20.02.2017 16:00 9,6 C 9,5 C 8,3 C 97 % 14 lf 1014,0 hPa 0,0 l/m 0,00 h 0,87 h 30 W/m 29,6 km/h (5 Bft) 96,58 %
20.02.2017 17:00 9,6 C 9,4 C 7,9 C 98 % 15 lf 1014,0 hPa 0,0 l/m 0,00 h 0,60 h 5 W/m 26,4 km/h (4 Bft) 95,51 %
20.02.2017 18:00 9,7 C 9,5 C 8,3 C 98 % 15 lf 1014,1 hPa 0,0 l/m 0,00 h 0,63 h 0 W/m 29,3 km/h (5 Bft) 95,05 %
20.02.2017 19:00 9,8 C 10,0 C 8,3 C 98 % 15 lf 1014,2 hPa 0,0 l/m 0,00 h 0,38 h 0 W/m 25,2 km/h (4 Bft) 96,26 %
20.02.2017 20:00 9,9 C 10,0 C 8,6 C 99 % 15 lf 1014,0 hPa 0,0 l/m 0,00 h 0,07 h 0 W/m 23,4 km/h (4 Bft) 95,94 %
20.02.2017 21:00 10,2 C 10,5 C 8,9 C 99 % 9 lf 1013,6 hPa 0,0 l/m 0,00 h 0,13 h 0 W/m 23,7 km/h (4 Bft) 97,22 %
20.02.2017 22:00 10,6 C 10,6 C 8,9 C 99 % 15 lf 1013,5 hPa 1,2 l/m 0,00 h 0,70 h 0 W/m 25,5 km/h (4 Bft) 94,89 %
20.02.2017 23:00 10,6 C 10,6 C 8,9 C 99 % 15 lf 1013,2 hPa 1,0 l/m 0,00 h 1,00 h 0 W/m 25,6 km/h (4 Bft) 95,87 %
21.02.2017 00:00 10,5 C 10,6 C 8,9 C 99 % 15 lf 1013,3 hPa 0,6 l/m 0,00 h 0,98 h 0 W/m 20,6 km/h (4 Bft) 93,90 %
21.02.2017 01:00 10,4 C 10,5 C 8,9 C 99 % 15 lf 1013,3 hPa 0,2 l/m 0,00 h 0,47 h 0 W/m 20,7 km/h (4 Bft) 96,09 %
21.02.2017 02:00 10,3 C 10,0 C 8,9 C 99 % 15 lf 1013,1 hPa 0,2 l/m 0,00 h 0,47 h 0 W/m 20,3 km/h (4 Bft) 95,22 %
21.02.2017 03:00 10,0 C 9,8 C 8,4 C 99 % 15 lf 1013,1 hPa 0,2 l/m 0,00 h 0,50 h 0 W/m 22,4 km/h (4 Bft) 95,38 %
21.02.2017 04:00 9,5 C 9,3 C 7,9 C 99 % 15 lf 1012,9 hPa 0,0 l/m 0,00 h 0,03 h 0 W/m 15,3 km/h (3 Bft) 97,85 %
21.02.2017 05:00 9,3 C 9,3 C 7,8 C 99 % 15 lf 1013,1 hPa 0,0 l/m 0,00 h 0,03 h 0 W/m 16,4 km/h (3 Bft) 94,46 %
21.02.2017 06:00 8,9 C 8,5 C 6,9 C 99 % 15 lf 1013,4 hPa 0,0 l/m 0,00 h 0,00 h 0 W/m 16,0 km/h (3 Bft) 96,37 %
21.02.2017 07:00 8,7 C 8,4 C 6,8 C 98 % 15 lf 1013,7 hPa 0,0 l/m 0,00 h 0,07 h 6 W/m 13,4 km/h (3 Bft) 96,70 %
21.02.2017 08:00 9,1 C 9,2 C 7,7 C 98 % 11 lf 1014,1 hPa 0,0 l/m 0,00 h 0,00 h 14 W/m 15,2 km/h (3 Bft) 95,66 %
21.02.2017 09:00 9,6 C 10,0 C 8,4 C 98 % 0 lf 1014,3 hPa 0,0 l/m 0,00 h 0,03 h 56 W/m 16,8 km/h (3 Bft) 96,09 %
21.02.2017 10:00 10,2 C 11,3 C 9,2 C 97 % 0 lf 1014,6 hPa 0,0 l/m 0,00 h 0,00 h 132 W/m 22,1 km/h (4 Bft) 96,15 %
21.02.2017 11:00 11,1 C 13,8 C 10,4 C 92 % 0 lf 1014,7 hPa 0,0 l/m 0,00 h 0,00 h 212 W/m 23,2 km/h (4 Bft) 94,05 %
21.02.2017 12:00 12,1 C 17,3 C 12,2 C 82 % 0 lf 1014,8 hPa 0,0 l/m 0,78 h 0,00 h 354 W/m 24,3 km/h (4 Bft) 98,48 %
21.02.2017 13:00 13,2 C 19,5 C 12,7 C 74 % 0 lf 1014,7 hPa 0,0 l/m 0,67 h 0,00 h 394 W/m 28,9 km/h (5 Bft) 94,16 %
21.02.2017 14:00 13,0 C 18,1 C 12,3 C 71 % 0 lf 1014,6 hPa 0,0 l/m 0,80 h 0,00 h 315 W/m 21,7 km/h (4 Bft) 95,22 %
21.02.2017 15:00 12,9 C 17,3 C 11,5 C 71 % 0 lf 1014,5 hPa 0,0 l/m 0,80 h 0,00 h 217 W/m 19,8 km/h (3 Bft) 96,51 %
21.02.2017 16:00 12,4 C 14,7 C 10,5 C 72 % 0 lf 1014,0 hPa 0,0 l/m 0,57 h 0,00 h 125 W/m 18,9 km/h (3 Bft) 94,75 %
21.02.2017 17:00 11,3 C 11,2 C 8,9 C 78 % 0 lf 1014,0 hPa 0,0 l/m 0,00 h 0,00 h 26 W/m 15,5 km/h (3 Bft) 96,60 %
21.02.2017 18:00 10,5 C 10,5 C 8,6 C 86 % 0 lf 1014,0 hPa 0,0 l/m 0,00 h 0,00 h 0 W/m 13,5 km/h (3 Bft) 97,27 %
21.02.2017 19:00 10,2 C 9,7 C 8,2 C 92 % 5 lf 1013,6 hPa 0,0 l/m 0,00 h 0,10 h 0 W/m 12,1 km/h (2 Bft) 94,35 %
21.02.2017 20:00 10,1 C 10,3 C 8,3 C 94 % 5 lf 1012,9 hPa 0,0 l/m 0,00 h 0,00 h 0 W/m 16,0 km/h (3 Bft) 95,05 %
21.02.2017 21:00 10,3 C 10,5 C 8,9 C 95 % 0 lf 1012,3 hPa 0,0 l/m 0,00 h 0,00 h 0 W/m 21,5 km/h (4 Bft) 98,02 %
21.02.2017 22:00 10,3 C 10,5 C 9,1 C 95 % 2 lf 1011,6 hPa 0,0 l/m 0,00 h 0,00 h 0 W/m 26,7 km/h (4 Bft) 95,00 %
21.02.2017 23:00 10,3 C 9,9 C 8,4 C 95 % 15 lf 1010,9 hPa 0,2 l/m 0,00 h 0,90 h 0 W/m 28,4 km/h (4 Bft) 95,06 %
22.02.2017 00:00 9,9 C 9,7 C 8,3 C 96 % 15 lf 1010,3 hPa 0,0 l/m 0,00 h 0,68 h 0 W/m 33,5 km/h (5 Bft) 97,75 %
22.02.2017 01:00 10,2 C 10,6 C 8,4 C 96 % 5 lf 1009,6 hPa 0,0 l/m 0,00 h 0,13 h 0 W/m 34,2 km/h (5 Bft) 94,26 %
22.02.2017 02:00 10,5 C 10,7 C 8,9 C 94 % 0 lf 1009,1 hPa 0,0 l/m 0,00 h 0,27 h 0 W/m 39,0 km/h (6 Bft) 98,41 %
22.02.2017 03:00 10,7 C 11,1 C 9,1 C 93 % 0 lf 1008,8 hPa 0,0 l/m 0,00 h 0,10 h 0 W/m 41,5 km/h (6 Bft) 94,76 %
22.02.2017 04:00 10,6 C 10,7 C 9,2 C 92 % 1 lf 1007,9 hPa 0,0 l/m 0,00 h 0,32 h 0 W/m 43,8 km/h (6 Bft) 94,97 %
22.02.2017 05:00 10,4 C 10,6 C 8,9 C 90 % 0 lf 1007,4 hPa 0,0 l/m 0,00 h 0,07 h 0 W/m 42,2 km/h (6 Bft) 97,61 %
22.02.2017 06:00 10,1 C 10,2 C 8,5 C 91 % 1 lf 1006,9 hPa 0,0 l/m 0,00 h 0,03 h 0 W/m 42,0 km/h (6 Bft) 97,21 %
22.02.2017 07:00 9,5 C 9,1 C 7,8 C 94 % 14 lf 1006,9 hPa 0,8 l/m 0,00 h 0,97 h 3 W/m 39,4 km/h (6 Bft) 92,53 %
22.02.2017 08:00 9,4 C 9,1 C 7,8 C 96 % 15 lf 1007,1 hPa 0,4 l/m 0,00 h 1,00 h 13 W/m 36,9 km/h (5 Bft) 98,51 %
22.02.2017 09:00 9,6 C 9,4 C 8,1 C 97 % 15 lf 1006,9 hPa 0,0 l/m 0,00 h 1,00 h 41 W/m 41,8 km/h (6 Bft) 95,13 %
22.02.2017 10:00 9,9 C 9,9 C 8,3 C 96 % 15 lf 1006,8 hPa 0,0 l/m 0,00 h 0,77 h 65 W/m 44,0 km/h (6 Bft) 96,68 %
22.02.2017 11:00 10,2 C 10,6 C 8,9 C 95 % 2 lf 1006,7 hPa 0,0 l/m 0,00 h 0,23 h 89 W/m 43,0 km/h (6 Bft) 94,83 %
22.02.2017 12:00 10,3 C 10,3 C 8,5 C 94 % 13 lf 1006,5 hPa 0,2 l/m 0,00 h 0,78 h 62 W/m 43,0 km/h (6 Bft) 96,73 %
22.02.2017 13:00 10,3 C 10,8 C 8,8 C 94 % 5 lf 1006,0 hPa 0,0 l/m 0,00 h 0,87 h 77 W/m 44,5 km/h (6 Bft) 95,59 %
22.02.2017 14:00 10,1 C 9,9 C 8,7 C 96 % 15 lf 1005,5 hPa 1,4 l/m 0,00 h 1,00 h 61 W/m 39,1 km/h (6 Bft) 95,21 %
22.02.2017 15:00 10,1 C 9,8 C 8,4 C 96 % 15 lf 1005,0 hPa 1,4 l/m 0,00 h 1,00 h 41 W/m 42,8 km/h (6 Bft) 95,51 %
22.02.2017 16:00 10,1 C 9,7 C 8,3 C 96 % 15 lf 1004,9 hPa 1,0 l/m 0,00 h 1,00 h 24 W/m 46,2 km/h (6 Bft) 95,60 %
22.02.2017 17:00 10,0 C 9,4 C 8,3 C 96 % 15 lf 1004,9 hPa 1,6 l/m 0,00 h 1,00 h 8 W/m 43,6 km/h (6 Bft) 96,89 %
22.02.2017 18:00 9,9 C 9,4 C 8,3 C 97 % 15 lf 1005,1 hPa 0,4 l/m 0,00 h 0,90 h 5 W/m 37,4 km/h (5 Bft) 96,97 %
22.02.2017 19:00 9,9 C 9,4 C 8,3 C 97 % 15 lf 1005,0 hPa 0,2 l/m 0,00 h 1,00 h 3 W/m 38,6 km/h (5 Bft) 94,03 %
22.02.2017 20:00 9,9 C 9,4 C 8,3 C 97 % 15 lf 1005,4 hPa 1,8 l/m 0,00 h 1,00 h 0 W/m 23,6 km/h (4 Bft) 96,87 %
22.02.2017 21:00 9,7 C 9,4 C 8,3 C 97 % 15 lf 1005,4 hPa 1,6 l/m 0,00 h 1,00 h 0 W/m 16,6 km/h (3 Bft) 98,57 %
22.02.2017 22:00 9,7 C 9,4 C 8,3 C 98 % 15 lf 1005,0 hPa 0,6 l/m 0,00 h 0,93 h 0 W/m 26,3 km/h (4 Bft) 93,95 %
22.02.2017 23:00 9,8 C 9,4 C 8,3 C 98 % 15 lf 1004,7 hPa 0,4 l/m 0,00 h 0,90 h 0 W/m 34,8 km/h (5 Bft) 96,79 %
23.02.2017 00:00 9,8 C 9,4 C 8,3 C 98 % 15 lf 1004,3 hPa 0,6 l/m 0,00 h 0,98 h 0 W/m 38,7 km/h (5 Bft) 95,68 %
23.02.2017 01:00 9,8 C 9,4 C 8,3 C 98 % 15 lf 1004,1 hPa 0,2 l/m 0,00 h 1,00 h 0 W/m 37,8 km/h (5 Bft) 96,58 %
23.02.2017 02:00 9,8 C 9,4 C 8,3 C 97 % 15 lf 1003,9 hPa 0,2 l/m 0,00 h 0,97 h 0 W/m 39,0 km/h (6 Bft) 97,22 %
23.02.2017 03:00 9,8 C 9,4 C 8,0 C 97 % 15 lf 1003,3 hPa 0,4 l/m 0,00 h 1,00 h 0 W/m 37,4 km/h (5 Bft) 94,66 %
23.02.2017 04:00 9,5 C 9,2 C 7,8 C 97 % 15 lf 1002,6 hPa 0,2 l/m 0,00 h 0,73 h 0 W/m 33,1 km/h (5 Bft) 96,65 %
23.02.2017 05:00 9,1 C 8,9 C 7,6 C 97 % 15 lf 1002,0 hPa 0,0 l/m 0,00 h 0,67 h 0 W/m 37,3 km/h (5 Bft) 97,79 %
23.02.2017 06:00 9,0 C 8,3 C 7,5 C 96 % 15 lf 1001,3 hPa 0,0 l/m 0,00 h 0,00 h 0 W/m 36,6 km/h (5 Bft) 95,05 %
23.02.2017 07:00 8,7 C 8,3 C 7,2 C 96 % 15 lf 1000,7 hPa 0,0 l/m 0,00 h 0,03 h 5 W/m 35,3 km/h (5 Bft) 95,00 %
23.02.2017 08:00 8,9 C 8,3 C 7,2 C 94 % 5 lf 1000,2 hPa 0,0 l/m 0,00 h 0,17 h 13 W/m 35,8 km/h (5 Bft) 96,69 %
23.02.2017 09:00 8,7 C 8,3 C 7,2 C 95 % 15 lf 999,0 hPa 0,2 l/m 0,00 h 0,53 h 38 W/m 32,0 km/h (5 Bft) 96,34 %
23.02.2017 10:00 8,6 C 8,3 C 7,2 C 95 % 7 lf 998,0 hPa 0,0 l/m 0,00 h 0,10 h 46 W/m 36,6 km/h (5 Bft) 96,31 %
23.02.2017 11:00 8,8 C 8,4 C 7,3 C 93 % 6 lf 996,9 hPa 0,0 l/m 0,00 h 0,63 h 71 W/m 33,0 km/h (5 Bft) 94,56 %
23.02.2017 12:00 8,7 C 8,8 C 7,2 C 94 % 1 lf 995,4 hPa 0,0 l/m 0,00 h 0,30 h 89 W/m 41,4 km/h (6 Bft) 97,51 %
23.02.2017 13:00 9,2 C 10,0 C 8,1 C 91 % 1 lf 992,9 hPa 0,0 l/m 0,00 h 0,57 h 130 W/m 45,0 km/h (6 Bft) 95,09 %
23.02.2017 14:00 9,6 C 9,9 C 7,9 C 89 % 8 lf 991,4 hPa 0,2 l/m 0,00 h 0,80 h 117 W/m 48,5 km/h (6 Bft) 97,86 %
23.02.2017 15:00 10,1 C 12,6 C 8,8 C 82 % 0 lf 990,5 hPa 0,0 l/m 0,50 h 0,03 h 195 W/m 54,4 km/h (7 Bft) 95,02 %
23.02.2017 16:00 10,3 C 11,1 C 8,7 C 78 % 1 lf 989,9 hPa 0,0 l/m 0,30 h 0,47 h 95 W/m 56,6 km/h (7 Bft) 95,30 %
23.02.2017 17:00 10,0 C 9,9 C 8,0 C 73 % 4 lf 990,1 hPa 0,2 l/m 0,00 h 0,60 h 14 W/m 57,9 km/h (7 Bft) 97,22 %
23.02.2017 18:00 8,6 C 6,9 C 5,0 C 80 % 15 lf 990,6 hPa 0,4 l/m 0,00 h 0,90 h 2 W/m 55,9 km/h (7 Bft) 95,32 %
23.02.2017 19:00 8,6 C 8,3 C 4,9 C 77 % 8 lf 991,0 hPa 0,2 l/m 0,00 h 0,87 h 0 W/m 57,7 km/h (7 Bft) 94,23 %
23.02.2017 20:00 8,0 C 7,9 C 5,6 C 78 % 5 lf 991,3 hPa 0,0 l/m 0,00 h 0,33 h 0 W/m 56,0 km/h (7 Bft) 98,51 %
23.02.2017 21:00 6,4 C 5,3 C 3,7 C 86 % 15 lf 992,2 hPa 1,0 l/m 0,00 h 0,63 h 2 W/m 54,1 km/h (7 Bft) 96,15 %
23.02.2017 22:00 5,9 C 5,2 C 3,5 C 87 % 14 lf 992,6 hPa 0,0 l/m 0,00 h 0,60 h 2 W/m 47,7 km/h (6 Bft) 95,51 %
23.02.2017 23:00 5,9 C 5,4 C 3,5 C 87 % 15 lf 993,4 hPa 0,0 l/m 0,00 h 1,00 h 2 W/m 57,5 km/h (7 Bft) 95,87 %
24.02.2017 00:00 5,2 C 4,9 C 3,0 C 89 % 15 lf 996,2 hPa 0,2 l/m 0,00 h 0,98 h 2 W/m 50,1 km/h (7 Bft) 95,97 %
24.02.2017 01:00 4,6 C 4,5 C 2,8 C 91 % 15 lf 999,7 hPa 0,2 l/m 0,00 h 1,00 h 2 W/m 39,3 km/h (6 Bft) 97,02 %
24.02.2017 02:00 4,3 C 4,4 C 2,2 C 92 % 15 lf 1001,9 hPa 0,0 l/m 0,00 h 0,57 h 2 W/m 29,7 km/h (5 Bft) 95,32 %
24.02.2017 03:00 4,2 C 4,1 C 2,1 C 90 % 14 lf 1003,3 hPa 0,0 l/m 0,00 h 0,20 h 3 W/m 25,7 km/h (4 Bft) 95,99 %
24.02.2017 04:00 4,0 C 4,0 C 2,1 C 90 % 5 lf 1004,6 hPa 0,4 l/m 0,00 h 0,27 h 3 W/m 27,6 km/h (4 Bft) 94,38 %
24.02.2017 05:00 3,4 C 2,8 C 1,3 C 92 % 15 lf 1005,9 hPa 0,2 l/m 0,00 h 0,23 h 4 W/m 18,6 km/h (3 Bft) 97,70 %
24.02.2017 06:00 3,2 C 3,1 C 1,4 C 94 % 15 lf 1007,1 hPa 0,0 l/m 0,00 h 0,00 h 0 W/m 23,4 km/h (4 Bft) 97,89 %
24.02.2017 07:00 3,0 C 2,7 C 1,2 C 93 % 11 lf 1008,5 hPa 0,0 l/m 0,20 h 0,00 h 17 W/m 20,1 km/h (4 Bft) 92,80 %
24.02.2017 08:00 3,0 C 3,6 C 1,5 C 93 % 0 lf 1009,6 hPa 0,0 l/m 0,70 h 0,00 h 88 W/m 19,4 km/h (3 Bft) 96,29 %
24.02.2017 09:00 4,4 C 8,4 C 3,5 C 90 % 0 lf 1010,7 hPa 0,0 l/m 0,63 h 0,00 h 200 W/m 21,3 km/h (4 Bft) 96,22 %
24.02.2017 10:00 5,6 C 12,5 C 4,8 C 85 % 0 lf 1011,8 hPa 0,0 l/m 0,77 h 0,00 h 307 W/m 18,0 km/h (3 Bft) 95,94 %
24.02.2017 11:00 6,8 C 13,3 C 7,2 C 75 % 0 lf 1012,5 hPa 0,0 l/m 0,60 h 0,00 h 384 W/m 17,9 km/h (3 Bft) 96,87 %
24.02.2017 12:00 7,3 C 11,7 C 7,7 C 72 % 0 lf 1012,9 hPa 0,0 l/m 0,30 h 0,13 h 272 W/m 17,2 km/h (3 Bft) 95,82 %
24.02.2017 13:00 5,6 C 8,6 C 5,6 C 80 % 0 lf 1013,5 hPa 0,2 l/m 0,20 h 0,03 h 215 W/m 20,5 km/h (4 Bft) 96,72 %
24.02.2017 14:00 7,4 C 14,3 C 7,8 C 76 % 0 lf 1013,6 hPa 0,0 l/m 0,77 h 0,00 h 394 W/m 19,0 km/h (3 Bft) 95,52 %
24.02.2017 15:00 7,3 C 12,0 C 7,6 C 75 % 0 lf 1014,1 hPa 0,0 l/m 0,63 h 0,00 h 233 W/m 17,4 km/h (3 Bft) 96,15 %
24.02.2017 16:00 7,8 C 12,9 C 7,5 C 75 % 0 lf 1014,6 hPa 0,0 l/m 0,83 h 0,00 h 205 W/m 15,1 km/h (3 Bft) 96,02 %
24.02.2017 17:00 7,2 C 6,9 C 5,0 C 76 % 0 lf 1015,4 hPa 0,0 l/m 0,00 h 0,03 h 26 W/m 9,4 km/h (2 Bft) 96,65 %
24.02.2017 18:00 5,7 C 4,1 C 1,6 C 77 % 0 lf 1016,6 hPa 0,0 l/m 0,00 h 0,00 h 4 W/m 7,0 km/h (2 Bft) 96,39 %
24.02.2017 19:00 4,3 C 2,8 C 0,5 C 81 % 0 lf 1017,6 hPa 0,0 l/m 0,00 h 0,00 h 3 W/m 7,1 km/h (2 Bft) 95,72 %
24.02.2017 20:00 3,3 C 2,1 C -0,3 C 83 % 0 lf 1018,3 hPa 0,0 l/m 0,00 h 0,00 h 0 W/m 6,2 km/h (2 Bft) 96,16 %
24.02.2017 21:00 2,5 C 1,6 C -0,8 C 86 % 0 lf 1018,7 hPa 0,0 l/m 0,00 h 0,00 h 0 W/m 6,0 km/h (2 Bft) 94,52 %
24.02.2017 22:00 1,8 C 0,7 C -1,5 C 87 % 0 lf 1019,3 hPa 0,0 l/m 0,00 h 0,00 h 0 W/m 6,0 km/h (2 Bft) 96,29 %
24.02.2017 23:00 1,1 C 0,3 C -2,1 C 89 % 1 lf 1019,7 hPa 0,0 l/m 0,00 h 0,00 h 2 W/m 4,2 km/h (1 Bft) 95,72 %
25.02.2017 00:00 0,5 C 0,2 C -1,9 C 91 % 3 lf 1020,0 hPa 0,0 l/m 0,00 h 0,00 h 2 W/m 7,0 km/h (2 Bft) 97,37 %
25.02.2017 01:00 0,6 C 0,5 C -1,8 C 93 % 3 lf 1020,1 hPa 0,0 l/m 0,00 h 0,00 h 2 W/m 7,0 km/h (2 Bft) 94,73 %
25.02.2017 02:00 0,6 C 0,6 C -1,6 C 94 % 7 lf 1020,2 hPa 0,0 l/m 0,00 h 0,00 h 2 W/m 8,0 km/h (2 Bft) 93,95 %
25.02.2017 03:00 0,9 C 0,8 C -1,4 C 94 % 11 lf 1019,9 hPa 0,0 l/m 0,00 h 0,00 h 4 W/m 8,3 km/h (2 Bft) 98,49 %
25.02.2017 04:00 0,9 C 1,0 C -1,5 C 95 % 13 lf 1019,6 hPa 0,0 l/m 0,00 h 0,00 h 4 W/m 7,8 km/h (2 Bft) 94,46 %
25.02.2017 05:00 0,9 C 0,9 C -1,7 C 95 % 15 lf 1019,5 hPa 0,0 l/m 0,00 h 0,00 h 3 W/m 8,0 km/h (2 Bft) 97,59 %
25.02.2017 06:00 0,8 C 0,8 C -1,9 C 96 % 15 lf 1019,8 hPa 0,0 l/m 0,00 h 0,07 h 2 W/m 7,6 km/h (2 Bft) 94,37 %
25.02.2017 07:00 0,5 C 0,6 C -1,9 C 96 % 15 lf 1020,0 hPa 0,0 l/m 0,00 h 0,00 h 11 W/m 7,8 km/h (2 Bft) 96,22 %
25.02.2017 08:00 0,8 C 1,9 C -0,7 C 97 % 15 lf 1020,2 hPa 0,0 l/m 0,87 h 0,00 h 110 W/m 9,5 km/h (2 Bft) 96,30 %
25.02.2017 09:00 2,9 C 8,4 C 2,3 C 97 % 9 lf 1020,1 hPa 0,0 l/m 1,00 h 0,00 h 249 W/m 14,8 km/h (3 Bft) 96,30 %
25.02.2017 10:00 5,4 C 11,3 C 5,6 C 87 % 0 lf 1019,8 hPa 0,0 l/m 0,97 h 0,00 h 375 W/m 19,6 km/h (3 Bft) 94,23 %
25.02.2017 11:00 7,4 C 12,6 C 7,8 C 73 % 0 lf 1019,3 hPa 0,0 l/m 0,97 h 0,00 h 425 W/m 30,2 km/h (5 Bft) 97,51 %
25.02.2017 12:00 8,6 C 13,6 C 9,0 C 68 % 0 lf 1018,8 hPa 0,0 l/m 0,97 h 0,00 h 451 W/m 29,9 km/h (5 Bft) 95,63 %
25.02.2017 13:00 8,4 C 10,0 C 8,7 C 67 % 0 lf 1017,9 hPa 0,0 l/m 0,00 h 0,00 h 224 W/m 29,9 km/h (5 Bft) 95,09 %
25.02.2017 14:00 8,2 C 8,9 C 7,5 C 67 % 0 lf 1017,2 hPa 0,0 l/m 0,00 h 0,00 h 101 W/m 25,2 km/h (4 Bft) 97,29 %
25.02.2017 15:00 8,0 C 8,5 C 7,0 C 67 % 0 lf 1016,8 hPa 0,0 l/m 0,00 h 0,00 h 65 W/m 23,6 km/h (4 Bft) 94,28 %
25.02.2017 16:00 7,8 C 8,3 C 6,7 C 68 % 0 lf 1016,4 hPa 0,0 l/m 0,00 h 0,00 h 39 W/m 22,2 km/h (4 Bft) 95,81 %
25.02.2017 17:00 7,8 C 8,3 C 6,7 C 67 % 0 lf 1015,5 hPa 0,0 l/m 0,00 h 0,00 h 27 W/m 22,6 km/h (4 Bft) 96,10 %
25.02.2017 18:00 7,8 C 8,0 C 6,1 C 65 % 0 lf 1015,0 hPa 0,0 l/m 0,00 h 0,00 h 7 W/m 18,0 km/h (3 Bft) 96,96 %
25.02.2017 19:00 7,5 C 7,5 C 5,4 C 69 % 0 lf 1015,2 hPa 0,0 l/m 0,00 h 0,00 h 5 W/m 12,9 km/h (3 Bft) 94,03 %
25.02.2017 20:00 7,3 C 7,3 C 5,6 C 71 % 0 lf 1015,1 hPa 0,0 l/m 0,00 h 0,00 h 0 W/m 12,1 km/h (2 Bft) 96,15 %
25.02.2017 21:00 7,1 C 7,2 C 5,6 C 73 % 0 lf 1014,8 hPa 0,0 l/m 0,00 h 0,00 h 0 W/m 16,8 km/h (3 Bft) 97,15 %
25.02.2017 22:00 6,9 C 7,2 C 5,0 C 75 % 0 lf 1014,3 hPa 0,0 l/m 0,00 h 0,00 h 5 W/m 17,3 km/h (3 Bft) 96,08 %
25.02.2017 23:00 7,0 C 7,2 C 5,6 C 74 % 0 lf 1013,9 hPa 0,0 l/m 0,00 h 0,00 h 5 W/m 20,9 km/h (4 Bft) 95,01 %
26.02.2017 00:00 7,3 C 7,6 C 5,6 C 74 % 0 lf 1013,5 hPa 0,0 l/m 0,00 h 0,00 h 5 W/m 20,7 km/h (4 Bft) 95,53 %
26.02.2017 01:00 7,5 C 7,8 C 5,7 C 73 % 0 lf 1013,0 hPa 0,0 l/m 0,00 h 0,00 h 5 W/m 21,0 km/h (4 Bft) 95,04 %
26.02.2017 02:00 7,7 C 7,8 C 6,1 C 72 % 0 lf 1012,5 hPa 0,0 l/m 0,00 h 0,00 h 5 W/m 21,7 km/h (4 Bft) 97,75 %
26.02.2017 03:00 7,7 C 7,8 C 6,1 C 73 % 0 lf 1012,1 hPa 0,0 l/m 0,00 h 0,07 h 5 W/m 17,9 km/h (3 Bft) 95,80 %
26.02.2017 04:00 7,6 C 7,8 C 5,7 C 74 % 0 lf 1011,4 hPa 0,0 l/m 0,00 h 0,00 h 5 W/m 20,6 km/h (4 Bft) 93,89 %
26.02.2017 05:00 7,5 C 7,8 C 5,7 C 74 % 0 lf 1011,1 hPa 0,0 l/m 0,00 h 0,00 h 5 W/m 20,0 km/h (4 Bft) 98,57 %
26.02.2017 06:00 7,5 C 7,8 C 5,6 C 75 % 0 lf 1010,6 hPa 0,0 l/m 0,00 h 0,00 h 0 W/m 19,7 km/h (3 Bft) 95,38 %
26.02.2017 07:00 7,5 C 7,8 C 5,7 C 76 % 0 lf 1010,5 hPa 0,0 l/m 0,00 h 0,23 h 8 W/m 20,0 km/h (4 Bft) 95,23 %
26.02.2017 08:00 7,5 C 8,0 C 6,3 C 76 % 0 lf 1011,1 hPa 0,0 l/m 0,00 h 0,00 h 27 W/m 23,6 km/h (4 Bft) 95,37 %
26.02.2017 09:00 7,8 C 9,6 C 7,4 C 76 % 0 lf 1011,1 hPa 0,0 l/m 0,17 h 0,00 h 115 W/m 25,5 km/h (4 Bft) 96,01 %
26.02.2017 10:00 9,1 C 13,1 C 9,4 C 76 % 0 lf 1011,0 hPa 0,0 l/m 0,90 h 0,00 h 283 W/m 30,3 km/h (5 Bft) 95,51 %
26.02.2017 11:00 9,8 C 11,8 C 10,0 C 76 % 0 lf 1011,1 hPa 0,0 l/m 0,30 h 0,00 h 221 W/m 32,2 km/h (5 Bft) 97,08 %
26.02.2017 12:00 10,9 C 15,5 C 11,2 C 76 % 0 lf 1010,8 hPa 0,0 l/m 0,73 h 0,00 h 395 W/m 31,1 km/h (5 Bft) 94,80 %
26.02.2017 13:00 12,0 C 17,4 C 11,2 C 75 % 0 lf 1010,3 hPa 0,0 l/m 0,77 h 0,00 h 585 W/m 33,8 km/h (5 Bft) 95,87 %
26.02.2017 14:00 12,6 C 17,4 C 12,9 C 75 % 0 lf 1009,9 hPa 0,0 l/m 0,87 h 0,00 h 412 W/m 31,3 km/h (5 Bft) 97,79 %
26.02.2017 15:00 12,5 C 14,5 C 12,2 C 75 % 0 lf 1009,6 hPa 0,0 l/m 0,37 h 0,00 h 193 W/m 27,0 km/h (4 Bft) 94,37 %
26.02.2017 16:00 12,0 C 12,5 C 11,1 C 77 % 0 lf 1009,5 hPa 0,0 l/m 0,00 h 0,00 h 79 W/m 26,8 km/h (4 Bft) 96,51 %
26.02.2017 17:00 11,5 C 11,7 C 10,1 C 80 % 0 lf 1009,3 hPa 0,0 l/m 0,20 h 0,00 h 36 W/m 22,7 km/h (4 Bft) 95,58 %
26.02.2017 18:00 11,0 C 11,1 C 9,4 C 82 % 0 lf 1009,6 hPa 0,0 l/m 0,00 h 0,00 h 5 W/m 25,2 km/h (4 Bft) 96,21 %
26.02.2017 19:00 10,5 C 10,6 C 8,9 C 83 % 0 lf 1009,5 hPa 0,0 l/m 0,00 h 0,00 h 2 W/m 21,1 km/h (4 Bft) 96,30 %
26.02.2017 20:00 10,3 C 10,6 C 8,9 C 84 % 0 lf 1009,2 hPa 0,0 l/m 0,00 h 0,00 h 0 W/m 17,6 km/h (3 Bft) 96,58 %
26.02.2017 21:00 10,3 C 10,6 C 8,9 C 83 % 0 lf 1009,1 hPa 0,0 l/m 0,00 h 0,00 h 0 W/m 18,3 km/h (3 Bft) 93,23 %
26.02.2017 22:00 10,3 C 10,6 C 8,9 C 82 % 0 lf 1008,5 hPa 0,0 l/m 0,00 h 0,00 h 0 W/m 17,8 km/h (3 Bft) 97,94 %
26.02.2017 23:00 10,4 C 10,6 C 8,9 C 82 % 0 lf 1007,9 hPa 0,0 l/m 0,00 h 0,00 h 0 W/m 18,0 km/h (3 Bft) 97,15 %
Min-Datum _ 25.02.17 25.02.17 24.02.17 25.02.17 21.02.17 23.02.17 - - - - 24.02.17 21.02.17
_ Min-Zeit 00:12 00:05 23:12 12:58 09:14 16:08 - - - - 22:54 00:02
Minimum _ 0,5 C -0,6 C -2,2 C 64 % 0 lf 989,8 hPa - - - - 2,1 km/h (1 Bft) 5,26 %
Max-Datum _ 21.02.17 21.02.17 26.02.17 20.02.17 20.02.17 20.02.17 22.02.17 21.02.17 20.02.17 26.02.17 23.02.17 20.02.17
_ Max-Zeit 13:26 13:08 14:52 20:10 07:54 00:20 20:10 12:02 02:12 13:10 17:56 00:06
Maximum _ 13,9 C 23,9 C 14,4 C 99 % 15 lf 1020,6 hPa 1,8 l/m 0,03 h 0,03 h 981 W/m 87,9 km/h
W (9 Bft)
100,00 %
Durchschnitt _ 8,1 C 8,8 C 6,6 C 88 % 6 lf 1010,4 hPa #20,8 l/m #19:07 h #47:11 h 94 W/m 26,1 km/h (4 Bft) 95,96 %
© 2017 W. Hausmann